Time;durP1;ratioP1;P1;durP2;ratioP2;P2;SDS_P1;SDS_P2;PMS_P1;PMS_P2;Temp;Humidity;BMP_temperature;BMP_pressure;BME280_temperature;BME280_humidity;BME280_pressure;Samples;Min_cycle;Max_cycle;Signal;HPM_P1;HPM_P2
2022/10/17 00:00:20;;;;;;;69.20;46.67;;;19.40;96.80;;;;;;6338228;22;19999;-77
2022/10/17 00:02:46;;;;;;;72.32;48.70;;;19.40;96.60;;;;;;6337186;22;20062;-77
2022/10/17 00:05:12;;;;;;;68.45;46.08;;;19.40;96.40;;;;;;6338219;22;20601;-77
2022/10/17 00:07:38;;;;;;;71.18;46.78;;;19.50;96.20;;;;;;6310142;22;20014;-77
2022/10/17 00:10:05;;;;;;;67.65;46.67;;;19.50;96.10;;;;;;6337796;22;20014;-77
2022/10/17 00:12:31;;;;;;;65.00;45.92;;;19.50;96.10;;;;;;6336939;22;20003;-76
2022/10/17 00:14:57;;;;;;;65.80;45.90;;;19.50;96.00;;;;;;6337563;22;20007;-77
2022/10/17 00:17:22;;;;;;;67.22;47.15;;;19.50;95.90;;;;;;6337503;22;20460;-77
2022/10/17 00:19:48;;;;;;;72.97;49.65;;;19.50;95.80;;;;;;6337289;22;19999;-77
2022/10/17 00:22:14;;;;;;;72.85;49.67;;;19.50;95.80;;;;;;6337660;22;19998;-76
2022/10/17 00:24:39;;;;;;;73.85;48.60;;;19.50;95.80;;;;;;6337973;22;20040;-75
2022/10/17 00:27:05;;;;;;;68.72;48.00;;;19.50;96.00;;;;;;6337687;22;20011;-76
2022/10/17 00:29:31;;;;;;;67.47;45.42;;;19.50;96.10;;;;;;6337413;22;20005;-75
2022/10/17 00:31:57;;;;;;;68.45;47.03;;;19.50;96.00;;;;;;6336734;22;20082;-78
2022/10/17 00:34:24;;;;;;;72.80;46.63;;;19.50;96.00;;;;;;6335183;22;20003;-79
2022/10/17 00:36:49;;;;;;;77.63;49.35;;;19.50;95.90;;;;;;6337541;22;19994;-79
2022/10/17 00:39:15;;;;;;;75.50;49.92;;;19.50;95.90;;;;;;6337404;22;20020;-79
2022/10/17 00:41:41;;;;;;;71.30;48.92;;;19.50;95.70;;;;;;6337393;22;20370;-79
2022/10/17 00:44:29;;;;;;;81.82;54.97;;;19.50;95.70;;;;;;6336983;22;20017;-76
2022/10/17 00:47:03;;;;;;;73.85;49.03;;;19.50;95.30;;;;;;6337003;22;20005;-76
2022/10/17 00:49:31;;;;;;;91.10;50.58;;;19.50;95.40;;;;;;6336857;22;19998;-76
2022/10/17 00:52:20;;;;;;;65.88;45.63;;;19.50;95.50;;;;;;6336614;22;19999;-75
2022/10/17 00:54:51;;;;;;;71.28;48.17;;;19.50;95.50;;;;;;6337013;22;20006;-75
2022/10/17 00:57:17;;;;;;;76.13;50.58;;;19.50;95.50;;;;;;6309825;22;20089;-75
2022/10/17 00:59:47;;;;;;;73.90;50.15;;;19.50;95.50;;;;;;6337319;22;20018;-75
2022/10/17 01:02:16;;;;;;;77.90;51.58;;;19.50;95.40;;;;;;6337065;22;20074;-75
2022/10/17 01:04:45;;;;;;;70.45;46.50;;;19.40;95.60;;;;;;6308878;22;20034;-76
2022/10/17 01:07:11;;;;;;;72.00;47.75;;;19.50;95.80;;;;;;6337555;22;20014;-75
2022/10/17 01:09:38;;;;;;;76.28;52.05;;;19.40;96.00;;;;;;6337129;22;20011;-75
2022/10/17 01:12:15;;;;;;;70.30;47.22;;;19.40;95.90;;;;;;6336078;22;20003;-77
2022/10/17 01:14:49;;;;;;;66.40;46.72;;;19.40;95.90;;;;;;6336980;22;20015;-77
2022/10/17 01:17:32;;;;;;;77.53;52.15;;;19.40;95.90;;;;;;6337817;22;19995;-76
2022/10/17 01:19:58;;;;;;;73.22;49.17;;;19.40;95.80;;;;;;6337609;22;19995;-76
2022/10/17 01:22:33;;;;;;;74.15;49.88;;;19.20;96.10;;;;;;6337317;22;20074;-76
2022/10/17 01:25:23;;;;;;;73.32;48.53;;;19.20;96.10;;;;;;6337824;22;20211;-78
2022/10/17 01:27:54;;;;;;;76.25;50.72;;;19.20;96.10;;;;;;6337600;22;20003;-79
2022/10/17 01:30:34;;;;;;;77.82;52.75;;;19.20;96.20;;;;;;6337273;22;20440;-82
2022/10/17 01:33:18;;;;;;;80.20;51.45;;;19.20;96.10;;;;;;6309060;22;20038;-79
2022/10/17 01:36:04;;;;;;;77.50;52.72;;;19.10;96.10;;;;;;6337183;22;20056;-79
2022/10/17 01:38:35;;;;;;;82.75;51.60;;;19.10;96.30;;;;;;6336985;22;20642;-79
2022/10/17 01:41:34;;;;;;;71.85;49.13;;;19.10;96.30;;;;;;6338368;22;20052;-79
2022/10/17 01:44:33;;;;;;;78.60;51.33;;;19.10;96.30;;;;;;6310540;22;20003;-79
2022/10/17 01:47:14;;;;;;;73.57;49.63;;;19.10;96.20;;;;;;6339338;22;20368;-79
2022/10/17 01:49:42;;;;;;;73.65;48.90;;;19.00;96.40;;;;;;6338621;22;20025;-79
2022/10/17 01:52:24;;;;;;;79.68;52.20;;;19.00;96.50;;;;;;6338700;22;20002;-78
2022/10/17 01:54:59;;;;;;;73.70;48.13;;;19.00;96.60;;;;;;6338260;22;20366;-79
2022/10/17 01:57:37;;;;;;;74.40;50.28;;;19.00;96.60;;;;;;6339018;22;19999;-79
2022/10/17 02:00:08;;;;;;;75.85;48.80;;;19.00;96.80;;;;;;6338203;22;19999;-79
2022/10/17 02:02:35;;;;;;;76.82;52.60;;;19.00;96.80;;;;;;6338617;22;20052;-80
2022/10/17 02:05:02;;;;;;;75.40;50.25;;;19.00;96.80;;;;;;6337849;22;20021;-78
2022/10/17 02:07:28;;;;;;;72.28;49.03;;;18.90;96.90;;;;;;6338853;22;20074;-79
2022/10/17 02:09:53;;;;;;;82.90;51.58;;;19.00;96.90;;;;;;6337603;22;20638;-78
2022/10/17 02:12:51;;;;;;;75.72;50.67;;;19.00;96.90;;;;;;6338562;22;20010;-77
2022/10/17 02:15:35;;;;;;;76.35;49.75;;;18.90;96.70;;;;;;6338191;22;20475;-77
2022/10/17 02:18:19;;;;;;;87.97;54.47;;;18.90;96.80;;;;;;6311102;22;20010;-78
2022/10/17 02:21:20;;;;;;;83.90;51.55;;;18.90;96.70;;;;;;6338544;22;19999;-77
2022/10/17 02:23:49;;;;;;;75.28;49.63;;;18.80;96.60;;;;;;6241906;23;20008;-79
2022/10/17 02:26:29;;;;;;;90.78;56.15;;;18.80;96.60;;;;;;6320438;22;20029;-81
2022/10/17 02:29:13;;;;;;;;;;;18.70;97.00;;;;;;6311693;22;20007;-78
2022/10/17 02:31:45;;;;;;;83.68;53.00;;;18.60;97.20;;;;;;6338493;22;19948;-78
2022/10/17 02:34:24;;;;;;;86.80;52.92;;;18.60;97.40;;;;;;6310800;22;20006;-83
2022/10/17 02:36:54;;;;;;;87.30;55.30;;;18.60;97.50;;;;;;6339680;22;20052;-80
2022/10/17 02:39:22;;;;;;;81.47;54.42;;;18.60;97.50;;;;;;6338605;22;20028;-81
2022/10/17 02:41:51;;;;;;;86.63;55.03;;;18.60;97.50;;;;;;6338812;22;20077;-80
2022/10/17 02:44:17;;;;;;;87.20;54.72;;;18.60;97.50;;;;;;6309698;22;20003;-79
2022/10/17 02:46:51;;;;;;;97.78;58.78;;;18.60;97.30;;;;;;6339210;22;20006;-81
2022/10/17 02:49:22;;;;;;;95.93;59.30;;;18.60;97.30;;;;;;6338336;22;20136;-80
2022/10/17 02:51:55;;;;;;;96.60;58.70;;;18.60;97.40;;;;;;6338654;22;20009;-80
2022/10/17 02:54:35;;;;;;;93.30;57.47;;;18.50;97.80;;;;;;6338009;22;20396;-78
2022/10/17 02:57:13;;;;;;;92.30;55.15;;;18.50;97.80;;;;;;6339624;22;19995;-77
2022/10/17 02:59:41;;;;;;;105.78;60.53;;;18.50;97.90;;;;;;6338606;22;19998;-78
2022/10/17 03:02:07;;;;;;;106.20;59.85;;;18.50;98.00;;;;;;6338329;22;20037;-76
2022/10/17 03:04:33;;;;;;;100.95;58.15;;;18.50;98.00;;;;;;6337814;22;20014;-76
2022/10/17 03:06:59;;;;;;;103.03;60.60;;;18.50;98.20;;;;;;6311299;22;20072;-77
2022/10/17 03:09:25;;;;;;;113.72;63.08;;;18.50;98.10;;;;;;6337497;22;20006;-77
2022/10/17 03:11:50;;;;;;;110.53;63.95;;;18.40;98.00;;;;;;6339078;22;20003;-77
2022/10/17 03:14:16;;;;;;;93.68;57.30;;;18.40;98.20;;;;;;6338029;22;20007;-76
2022/10/17 03:16:42;;;;;;;102.40;60.05;;;18.40;98.20;;;;;;6338837;22;20078;-76
2022/10/17 03:19:08;;;;;;;97.18;58.50;;;18.40;98.00;;;;;;6337532;22;20037;-76
2022/10/17 03:21:36;;;;;;;85.78;53.65;;;18.40;97.90;;;;;;6338394;22;20006;-76
2022/10/17 03:24:02;;;;;;;96.07;57.17;;;18.50;97.80;;;;;;6309815;22;20003;-77
2022/10/17 03:26:28;;;;;;;88.30;53.78;;;18.50;97.70;;;;;;6338741;22;20007;-77
2022/10/17 03:28:54;;;;;;;92.18;57.67;;;18.50;97.70;;;;;;6310083;22;20085;-76
2022/10/17 03:31:21;;;;;;;83.00;53.28;;;18.50;97.50;;;;;;6338300;22;19999;-76
2022/10/17 03:33:47;;;;;;;86.97;53.55;;;18.50;97.50;;;;;;6338131;22;20420;-76
2022/10/17 03:36:15;;;;;;;85.65;55.15;;;18.50;97.40;;;;;;6338514;22;19999;-75
2022/10/17 03:38:42;;;;;;;89.82;53.95;;;18.50;97.30;;;;;;6337286;22;19999;-77
2022/10/17 03:41:09;;;;;;;92.10;55.83;;;18.50;97.30;;;;;;6338110;22;19995;-77
2022/10/17 03:43:35;;;;;;;90.53;57.33;;;18.50;97.30;;;;;;6338065;22;20013;-77
2022/10/17 03:46:01;;;;;;;90.32;56.13;;;18.40;97.30;;;;;;6338445;22;20006;-76
2022/10/17 03:48:28;;;;;;;92.68;56.95;;;18.40;97.30;;;;;;6338266;22;20437;-76
2022/10/17 03:51:00;;;;;;;87.97;53.97;;;18.40;97.20;;;;;;6338291;22;20097;-76
2022/10/17 03:53:26;;;;;;;78.72;49.75;;;18.40;97.20;;;;;;6338529;22;20010;-77
2022/10/17 03:55:52;;;;;;;88.60;54.85;;;18.40;97.30;;;;;;6338803;22;19998;-76
2022/10/17 03:58:18;;;;;;;91.88;54.42;;;18.40;97.20;;;;;;6310591;22;20013;-76
2022/10/17 04:00:43;;;;;;;93.03;56.60;;;18.40;97.10;;;;;;6338221;22;19999;-76
2022/10/17 04:03:09;;;;;;;90.45;54.95;;;18.40;97.00;;;;;;6337662;22;20120;-76
2022/10/17 04:05:35;;;;;;;88.65;54.53;;;18.40;97.00;;;;;;6310364;22;20144;-77
2022/10/17 04:08:01;;;;;;;98.72;57.13;;;18.40;96.90;;;;;;6337185;22;20152;-76
2022/10/17 04:10:27;;;;;;;86.65;52.58;;;18.40;96.90;;;;;;6337574;22;20017;-75
2022/10/17 04:12:52;;;;;;;84.30;52.15;;;18.30;97.00;;;;;;6337467;22;20081;-75
2022/10/17 04:15:18;;;;;;;94.53;57.97;;;18.30;97.00;;;;;;6338477;22;20019;-79
2022/10/17 04:17:44;;;;;;;92.68;56.58;;;18.30;96.80;;;;;;6337547;22;19994;-79
2022/10/17 04:20:10;;;;;;;90.50;54.67;;;18.30;96.80;;;;;;6310637;22;20413;-77
2022/10/17 04:22:35;;;;;;;87.03;55.35;;;18.30;96.80;;;;;;6337677;22;20003;-77
2022/10/17 04:25:01;;;;;;;80.43;51.85;;;18.20;96.70;;;;;;6338017;22;20006;-77
2022/10/17 04:27:26;;;;;;;85.32;53.95;;;18.20;96.70;;;;;;6337786;22;20342;-76
2022/10/17 04:29:52;;;;;;;82.38;51.83;;;18.20;96.70;;;;;;6337338;22;20072;-78
2022/10/17 04:32:18;;;;;;;85.55;51.60;;;18.20;96.60;;;;;;6337916;22;20078;-78
2022/10/17 04:34:47;;;;;;;79.63;51.92;;;18.20;96.60;;;;;;6337867;22;20037;-77
2022/10/17 04:37:12;;;;;;;81.00;52.67;;;18.20;96.40;;;;;;6337958;22;20006;-80
2022/10/17 04:39:38;;;;;;;81.97;52.47;;;18.20;96.30;;;;;;6338051;22;20358;-78
2022/10/17 04:42:04;;;;;;;92.43;55.90;;;18.10;96.30;;;;;;6337877;22;20010;-78
2022/10/17 04:44:30;;;;;;;81.43;50.85;;;18.10;96.30;;;;;;6334539;22;20011;-81
2022/10/17 04:46:55;;;;;;;83.40;52.38;;;18.00;96.30;;;;;;6310056;22;20002;-80
2022/10/17 04:49:21;;;;;;;84.32;53.47;;;18.00;96.20;;;;;;6336569;22;20071;-79
2022/10/17 04:51:47;;;;;;;77.95;51.53;;;18.00;96.10;;;;;;6338186;22;19999;-79
2022/10/17 04:54:44;;;;;;;74.13;47.97;;;18.00;96.10;;;;;;6309810;22;20423;-76
2022/10/17 04:57:10;;;;;;;70.93;47.22;;;18.00;96.10;;;;;;6323349;22;20078;-75
2022/10/17 04:59:36;;;;;;;80.97;51.33;;;18.00;95.90;;;;;;6308860;22;20031;-75
2022/10/17 05:02:01;;;;;;;78.32;50.35;;;18.00;95.50;;;;;;6337036;22;19994;-75
2022/10/17 05:04:27;;;;;;;72.90;46.80;;;18.00;95.50;;;;;;6336879;22;20007;-75
2022/10/17 05:06:53;;;;;;;76.03;48.45;;;18.10;95.50;;;;;;6337526;22;20003;-75
2022/10/17 05:09:18;;;;;;;75.03;49.53;;;18.00;95.50;;;;;;6308906;22;20009;-75
2022/10/17 05:11:44;;;;;;;72.00;48.08;;;18.00;95.40;;;;;;6336827;22;20397;-75
2022/10/17 05:14:10;;;;;;;71.18;45.92;;;18.00;95.60;;;;;;6336614;22;20015;-75
2022/10/17 05:16:36;;;;;;;79.82;50.20;;;18.10;95.50;;;;;;6338155;22;20006;-81
2022/10/17 05:19:01;;;;;;;74.07;47.08;;;18.10;95.20;;;;;;6338624;22;20030;-82
2022/10/17 05:21:29;;;;;;;73.40;44.50;;;18.00;95.20;;;;;;6311654;22;19999;-84
2022/10/17 05:23:54;;;;;;;73.95;47.05;;;18.10;95.30;;;;;;6339712;22;20003;-84
2022/10/17 05:26:21;;;;;;;83.53;52.90;;;18.10;95.30;;;;;;6339363;22;20006;-76
2022/10/17 05:28:46;;;;;;;83.35;51.08;;;18.00;95.00;;;;;;6338890;22;20113;-81
2022/10/17 05:31:13;;;;;;;81.20;50.83;;;18.00;95.20;;;;;;6337064;22;20031;-75
2022/10/17 05:33:39;;;;;;;79.40;51.85;;;17.90;95.30;;;;;;6338657;22;20052;-76
2022/10/17 05:36:06;;;;;;;79.70;48.97;;;17.80;95.30;;;;;;6310315;22;20006;-84
2022/10/17 05:38:32;;;;;;;78.45;49.05;;;17.70;95.50;;;;;;6339264;22;20002;-78
2022/10/17 05:40:59;;;;;;;81.80;50.25;;;17.70;95.40;;;;;;6340889;22;20404;-84
2022/10/17 05:43:26;;;;;;;77.13;51.00;;;17.60;95.40;;;;;;6311743;22;20135;-85
2022/10/17 05:45:52;;;;;;;81.05;50.88;;;17.60;95.40;;;;;;6339365;22;20048;-86
2022/10/17 05:48:18;;;;;;;77.93;49.70;;;17.60;95.20;;;;;;6340650;22;20011;-86
2022/10/17 05:50:43;;;;;;;79.80;50.17;;;17.60;95.20;;;;;;6341115;22;20003;-87
2022/10/17 05:53:09;;;;;;;69.25;46.38;;;17.50;95.20;;;;;;6342044;22;20003;-87
2022/10/17 05:55:35;;;;;;;80.93;51.60;;;17.60;95.30;;;;;;6342028;22;20048;-85
2022/10/17 05:58:00;;;;;;;74.80;47.38;;;17.60;95.20;;;;;;6344062;22;20048;-85
2022/10/17 06:00:26;;;;;;;79.22;50.53;;;17.50;95.20;;;;;;6344913;22;20022;-85
2022/10/17 06:02:52;;;;;;;81.35;51.53;;;17.60;95.30;;;;;;6347025;22;20002;-86
2022/10/17 06:05:18;;;;;;;79.15;49.88;;;17.50;95.40;;;;;;6340050;22;20610;-76
2022/10/17 06:07:44;;;;;;;82.55;52.50;;;17.30;95.70;;;;;;6338601;22;20029;-76
2022/10/17 06:10:15;;;;;;;81.43;50.90;;;17.30;96.00;;;;;;6310527;22;20002;-76
2022/10/17 06:12:41;;;;;;;81.32;50.85;;;17.30;95.90;;;;;;6339146;22;20026;-76
2022/10/17 06:15:08;;;;;;;64.60;44.20;;;17.20;95.90;;;;;;6339337;22;20013;-76
2022/10/17 06:17:34;;;;;;;75.22;46.55;;;17.20;96.20;;;;;;6338766;22;20079;-76
2022/10/17 06:20:00;;;;;;;79.18;48.67;;;17.20;96.00;;;;;;6339337;22;20290;-76
2022/10/17 06:22:26;;;;;;;72.80;46.95;;;17.20;95.90;;;;;;6339445;22;19994;-76
2022/10/17 06:24:52;;;;;;;73.35;47.47;;;17.10;96.00;;;;;;6339141;22;20006;-76
2022/10/17 06:27:18;;;;;;;75.05;48.28;;;17.20;96.20;;;;;;6336498;22;20440;-77
2022/10/17 06:29:45;;;;;;;82.47;49.05;;;17.10;95.80;;;;;;6310200;22;20071;-76
2022/10/17 06:32:11;;;;;;;78.60;49.00;;;17.00;96.00;;;;;;6338776;22;20026;-76
2022/10/17 06:34:37;;;;;;;64.35;42.92;;;17.00;96.10;;;;;;6339471;22;20312;-76
2022/10/17 06:37:02;;;;;;;72.43;44.83;;;17.10;96.30;;;;;;6338033;22;20348;-76
2022/10/17 06:39:32;;;;;;;67.93;44.53;;;17.10;96.10;;;;;;6338995;22;20052;-76
2022/10/17 06:41:59;;;;;;;75.95;46.40;;;17.10;96.10;;;;;;6338816;22;19998;-76
2022/10/17 06:44:29;;;;;;;73.70;46.33;;;17.10;96.00;;;;;;6338757;22;20411;-75
2022/10/17 06:46:55;;;;;;;66.32;45.15;;;17.10;95.90;;;;;;6337912;22;20309;-76
2022/10/17 06:49:21;;;;;;;69.57;43.83;;;17.00;96.30;;;;;;6337513;22;20025;-76
2022/10/17 06:51:47;;;;;;;68.55;43.42;;;17.10;96.20;;;;;;6310697;22;20488;-77
2022/10/17 06:54:15;;;;;;;71.40;46.28;;;17.20;96.10;;;;;;6338986;22;20003;-80
2022/10/17 06:56:41;;;;;;;61.47;41.42;;;17.10;95.70;;;;;;6337839;22;20384;-77
2022/10/17 06:59:08;;;;;;;67.53;44.85;;;17.20;96.00;;;;;;6338515;22;19995;-77
2022/10/17 07:01:33;;;;;;;62.53;42.92;;;17.20;95.90;;;;;;6337703;22;19999;-77
2022/10/17 07:03:59;;;;;;;68.00;43.67;;;17.20;95.70;;;;;;6336605;22;20073;-77
2022/10/17 07:06:25;;;;;;;70.93;47.03;;;17.20;95.70;;;;;;6337710;22;20451;-77
2022/10/17 07:08:51;;;;;;;69.05;44.20;;;17.20;95.60;;;;;;6337618;22;19999;-77
2022/10/17 07:11:19;;;;;;;64.10;43.30;;;17.30;95.40;;;;;;6338699;22;20007;-85
2022/10/17 07:13:45;;;;;;;69.88;44.97;;;17.30;95.50;;;;;;6339440;22;20507;-86
2022/10/17 07:16:12;;;;;;;70.82;46.22;;;17.30;95.20;;;;;;6339266;22;20030;-86
2022/10/17 07:18:38;;;;;;;69.10;45.70;;;17.20;95.40;;;;;;6339043;22;20002;-86
2022/10/17 07:21:05;;;;;;;69.47;44.67;;;17.20;95.20;;;;;;6338872;22;19998;-84
2022/10/17 07:23:32;;;;;;;62.33;42.28;;;17.20;95.30;;;;;;6311580;22;20458;-85
2022/10/17 07:26:05;;;;;;;73.82;46.53;;;17.30;95.50;;;;;;6337471;22;20026;-85
2022/10/17 07:28:31;;;;;;;68.68;43.25;;;17.30;95.40;;;;;;6335910;22;20041;-86
2022/10/17 07:31:06;;;;;;;66.47;43.88;;;17.30;95.30;;;;;;6337896;22;19999;-85
2022/10/17 07:33:31;;;;;;;66.28;45.45;;;17.40;95.30;;;;;;6332689;22;20079;-76
2022/10/17 07:35:59;;;;;;;60.85;41.15;;;17.40;95.20;;;;;;6334285;22;20019;-84
2022/10/17 07:38:25;;;;;;;68.00;44.47;;;17.50;95.10;;;;;;6310136;22;20010;-84
2022/10/17 07:41:02;;;;;;;63.08;42.97;;;17.60;94.90;;;;;;6338347;22;20459;-84
2022/10/17 07:43:29;;;;;;;66.68;44.50;;;17.70;94.70;;;;;;6338293;22;20409;-84
2022/10/17 07:45:55;;;;;;;64.78;44.28;;;17.80;94.80;;;;;;6338886;22;20085;-84
2022/10/17 07:48:22;;;;;;;55.53;38.80;;;17.90;94.60;;;;;;6338832;22;20420;-84
2022/10/17 07:50:49;;;;;;;65.13;43.78;;;18.00;94.50;;;;;;6338342;22;20078;-84
2022/10/17 07:53:15;;;;;;;61.85;42.85;;;18.00;94.10;;;;;;6339011;22;20006;-85
2022/10/17 07:55:42;;;;;;;62.08;42.50;;;18.10;93.90;;;;;;6339362;22;20071;-84
2022/10/17 07:58:08;;;;;;;66.18;43.10;;;18.20;93.90;;;;;;6338542;22;19995;-84
2022/10/17 08:00:35;;;;;;;50.60;35.53;;;18.30;93.60;;;;;;6339245;22;19999;-84
2022/10/17 08:03:00;;;;;;;54.28;37.70;;;18.30;93.70;;;;;;6334997;22;20026;-84
2022/10/17 08:05:27;;;;;;;56.13;36.05;;;18.50;93.70;;;;;;6336469;22;20409;-83
2022/10/17 08:07:53;;;;;;;52.65;35.90;;;18.60;93.50;;;;;;6337486;22;20095;-84
2022/10/17 08:10:19;;;;;;;53.03;36.40;;;18.80;93.30;;;;;;6337170;22;20367;-84
2022/10/17 08:12:45;;;;;;;65.25;43.33;;;18.90;92.70;;;;;;6310533;22;20010;-83
2022/10/17 08:15:11;;;;;;;57.85;40.83;;;18.90;92.40;;;;;;6337525;22;20052;-83
2022/10/17 08:17:37;;;;;;;56.45;38.70;;;18.90;92.40;;;;;;6338181;22;20088;-83
2022/10/17 08:20:06;;;;;;;49.28;34.83;;;19.00;92.30;;;;;;6337834;22;19995;-82
2022/10/17 08:22:32;;;;;;;58.03;39.25;;;19.10;92.30;;;;;;6310548;22;20003;-83
2022/10/17 08:24:58;;;;;;;57.17;38.30;;;19.30;91.70;;;;;;6336636;22;20009;-83
2022/10/17 08:27:26;;;;;;;58.63;40.67;;;19.30;91.90;;;;;;6338380;22;20003;-83
2022/10/17 08:29:52;;;;;;;48.78;35.22;;;19.40;91.30;;;;;;6337697;22;20015;-83
2022/10/17 08:32:23;;;;;;;49.92;34.97;;;19.40;91.50;;;;;;6337682;22;20056;-83
2022/10/17 08:34:49;;;;;;;52.28;35.35;;;19.60;91.60;;;;;;6333734;22;20013;-83
2022/10/17 08:37:15;;;;;;;54.22;37.65;;;19.80;91.40;;;;;;6308341;22;20078;-84
2022/10/17 08:39:41;;;;;;;50.95;33.05;;;19.90;91.20;;;;;;6335817;22;20078;-84
2022/10/17 08:42:07;;;;;;;52.05;36.63;;;20.10;91.20;;;;;;6337255;22;19999;-83
2022/10/17 08:44:47;;;;;;;59.78;40.67;;;20.20;90.40;;;;;;6335851;22;20014;-83
2022/10/17 08:47:28;;;;;;;49.65;35.33;;;20.30;90.50;;;;;;6337828;22;20037;-84
2022/10/17 08:49:58;;;;;;;47.08;35.63;;;20.40;90.50;;;;;;6336994;22;20340;-83
2022/10/17 08:52:27;;;;;;;54.35;39.75;;;20.50;90.30;;;;;;6338622;22;20384;-84
2022/10/17 08:54:52;;;;;;;61.67;42.10;;;20.50;89.80;;;;;;6336549;22;20303;-84
2022/10/17 08:57:18;;;;;;;51.38;34.38;;;20.50;90.10;;;;;;6338686;22;20005;-84
2022/10/17 08:59:49;;;;;;;42.42;30.13;;;20.60;90.40;;;;;;6337942;22;20199;-83
2022/10/17 09:02:21;;;;;;;51.25;36.90;;;20.70;90.40;;;;;;6338752;22;20001;-83
2022/10/17 09:04:56;;;;;;;45.80;32.08;;;20.80;89.40;;;;;;6335571;22;20082;-85
2022/10/17 09:07:33;;;;;;;49.28;35.08;;;21.00;89.90;;;;;;6337531;22;20391;-77
2022/10/17 09:10:08;;;;;;;50.05;36.45;;;21.20;89.20;;;;;;6337798;22;20025;-85
2022/10/17 09:12:44;;;;;;;46.38;33.47;;;21.30;87.50;;;;;;6339305;22;20082;-85
2022/10/17 09:15:28;;;;;;;43.50;31.15;;;21.40;87.90;;;;;;6310306;22;20430;-76
2022/10/17 09:18:08;;;;;;;46.13;32.03;;;21.60;88.10;;;;;;6338425;22;20134;-76
2022/10/17 09:20:40;;;;;;;50.30;36.78;;;21.70;88.00;;;;;;6337973;22;20049;-76
2022/10/17 09:23:16;;;;;;;45.53;32.83;;;21.90;85.70;;;;;;6338107;22;19995;-76
2022/10/17 09:25:44;;;;;;;48.85;33.53;;;22.00;86.40;;;;;;6338390;22;19995;-76
2022/10/17 09:28:18;;;;;;;53.50;37.55;;;22.10;86.20;;;;;;6338410;22;20026;-75
2022/10/17 09:31:06;;;;;;;57.95;37.97;;;22.10;84.60;;;;;;6338401;22;20026;-76
2022/10/17 09:33:38;;;;;;;51.08;34.70;;;21.90;85.40;;;;;;6337890;22;20003;-76
2022/10/17 09:36:10;;;;;;;51.45;34.15;;;21.90;85.60;;;;;;6337978;22;20056;-76
2022/10/17 09:38:40;;;;;;;43.83;31.00;;;22.00;86.00;;;;;;6338057;22;20302;-75
2022/10/17 09:41:19;;;;;;;49.33;32.85;;;22.20;85.80;;;;;;6310439;22;20325;-76
2022/10/17 09:43:46;;;;;;;43.38;29.20;;;22.30;85.80;;;;;;6338158;22;19999;-76
2022/10/17 09:46:16;;;;;;;38.50;28.70;;;22.40;86.00;;;;;;6338232;22;20025;-76
2022/10/17 09:48:48;;;;;;;40.58;29.30;;;22.70;85.40;;;;;;6326328;22;19999;-76
2022/10/17 09:51:14;;;;;;;36.80;27.60;;;22.90;84.80;;;;;;6338226;22;20083;-76
2022/10/17 09:53:43;;;;;;;46.88;33.45;;;23.00;84.30;;;;;;6310338;22;20003;-76
2022/10/17 09:56:15;;;;;;;39.40;27.35;;;23.20;84.00;;;;;;6337935;22;20033;-76
2022/10/17 09:58:43;;;;;;;43.72;31.45;;;23.30;84.10;;;;;;6338809;22;19995;-84
2022/10/17 10:01:21;;;;;;;49.17;34.05;;;23.50;83.90;;;;;;6339555;22;19999;-84
2022/10/17 10:03:48;;;;;;;39.38;29.73;;;23.70;81.40;;;;;;6312884;22;20009;-84
2022/10/17 10:06:14;;;;;;;49.00;35.03;;;23.50;82.50;;;;;;6340271;22;20007;-84
2022/10/17 10:08:52;;;;;;;48.80;34.15;;;23.60;82.10;;;;;;6340686;22;20003;-84
2022/10/17 10:11:22;;;;;;;38.85;28.30;;;23.60;82.10;;;;;;6340322;22;20028;-84
2022/10/17 10:13:48;;;;;;;47.55;33.83;;;23.80;82.90;;;;;;6340072;22;20006;-84
2022/10/17 10:16:16;;;;;;;51.55;36.83;;;23.70;81.70;;;;;;6340008;22;20002;-84
2022/10/17 10:18:42;;;;;;;49.65;35.20;;;23.80;81.80;;;;;;6340161;22;19987;-84
2022/10/17 10:21:21;;;;;;;64.15;40.80;;;23.90;82.60;;;;;;6340167;22;20006;-84
2022/10/17 10:24:03;;;;;;;55.17;36.63;;;23.80;79.90;;;;;;6340486;22;19999;-84
2022/10/17 10:26:52;;;;;;;63.53;42.83;;;23.70;80.80;;;;;;6340233;22;20007;-84
2022/10/17 10:29:31;;;;;;;61.83;42.75;;;23.70;81.70;;;;;;6336793;22;20074;-76
2022/10/17 10:32:25;;;;;;;46.85;31.55;;;23.60;82.00;;;;;;6335434;22;20002;-76
2022/10/17 10:34:55;;;;;;;34.85;26.58;;;23.80;82.70;;;;;;6308170;22;20017;-76
2022/10/17 10:37:28;;;;;;;40.42;28.05;;;24.10;82.30;;;;;;6336561;22;20040;-76
2022/10/17 10:40:00;;;;;;;54.70;36.30;;;24.30;81.80;;;;;;6336149;22;20003;-76
2022/10/17 10:42:39;;;;;;;45.70;29.98;;;24.60;80.10;;;;;;6333129;22;20002;-76
2022/10/17 10:45:11;;;;;;;57.28;40.38;;;24.80;80.60;;;;;;6307998;22;20034;-76
2022/10/17 10:47:36;;;;;;;55.47;35.05;;;25.00;77.60;;;;;;6335609;22;20002;-76
2022/10/17 10:50:59;;;;;;;57.25;40.72;;;25.10;77.20;;;;;;6308473;22;20310;-76
2022/10/17 10:53:47;;;;;;;40.35;26.75;;;24.90;77.90;;;;;;6306452;22;20258;-82
2022/10/17 10:56:30;;;;;;;39.53;25.45;;;25.10;78.50;;;;;;6335627;22;20321;-82
2022/10/17 10:59:05;;;;;;;51.60;35.80;;;25.40;77.80;;;;;;6335565;22;20333;-82
2022/10/17 11:01:40;;;;;;;43.88;29.05;;;25.60;76.20;;;;;;6335576;22;20069;-82
2022/10/17 11:04:32;;;;;;;57.30;36.90;;;25.60;77.00;;;;;;6308452;22;20010;-82
2022/10/17 11:07:06;;;;;;;46.60;32.25;;;25.40;74.00;;;;;;6335124;22;20424;-82
2022/10/17 11:09:55;;;;;;;52.88;35.75;;;25.30;75.30;;;;;;6335742;22;20121;-82
2022/10/17 11:12:31;;;;;;;45.23;32.63;;;25.20;75.30;;;;;;6308794;22;20321;-82
2022/10/17 11:15:15;;;;;;;37.45;28.70;;;25.20;75.50;;;;;;6335837;22;20010;-82
2022/10/17 11:17:51;;;;;;;40.60;27.98;;;25.40;76.90;;;;;;6333568;22;19998;-81
2022/10/17 11:20:40;;;;;;;42.85;30.83;;;25.70;75.30;;;;;;6335934;22;20003;-81
2022/10/17 11:23:23;;;;;;;35.83;26.88;;;25.90;72.80;;;;;;6308167;22;20010;-82
2022/10/17 11:25:51;;;;;;;40.58;30.08;;;25.90;74.60;;;;;;6335513;22;20010;-81
2022/10/17 11:28:19;;;;;;;37.55;26.45;;;26.10;73.40;;;;;;6335347;22;20010;-82
2022/10/17 11:30:49;;;;;;;48.10;32.05;;;26.50;73.50;;;;;;6334663;22;19999;-82
2022/10/17 11:33:18;;;;;;;;;;;26.70;72.00;;;;;;6335897;22;20027;-82
2022/10/17 11:35:49;;;;;;;54.55;37.38;;;26.80;70.30;;;;;;6335252;22;19902;-82
2022/10/17 11:38:24;;;;;;;44.00;33.42;;;26.70;70.40;;;;;;6336362;22;20421;-82
2022/10/17 11:40:52;;;;;;;48.53;37.03;;;26.80;71.60;;;;;;6337508;22;20025;-83
2022/10/17 11:43:56;;;;;;;47.80;35.40;;;26.40;70.60;;;;;;6311190;22;20351;-83
2022/10/17 11:46:24;;;;;;;45.55;32.30;;;26.60;71.00;;;;;;6330741;22;20010;-82
2022/10/17 11:49:14;;;;;;;49.40;35.42;;;27.20;70.70;;;;;;6339007;22;19999;-82
2022/10/17 11:52:11;;;;;;;46.35;34.08;;;27.50;68.90;;;;;;6339147;22;20003;-82
2022/10/17 11:54:40;;;;;;;39.67;29.10;;;27.80;68.20;;;;;;6338982;22;20019;-82
2022/10/17 11:57:27;;;;;;;47.53;34.00;;;27.70;69.20;;;;;;6339179;22;20135;-82
2022/10/17 12:00:07;;;;;;;43.00;34.50;;;27.90;67.90;;;;;;6338875;22;19998;-82
2022/10/17 12:03:24;;;;;;;49.50;34.83;;;28.00;68.00;;;;;;6339109;22;20030;-82
2022/10/17 12:05:56;;;;;;;45.08;32.75;;;27.40;68.10;;;;;;6286768;22;20042;-82
2022/10/17 12:08:36;;;;;;;45.28;33.08;;;27.70;67.70;;;;;;6339582;22;20424;-82
2022/10/17 12:11:28;;;;;;;44.05;34.17;;;27.70;68.60;;;;;;6338878;22;20006;-83
2022/10/17 12:13:58;;;;;;;47.63;37.30;;;28.10;68.10;;;;;;6330242;22;19999;-82
2022/10/17 12:16:33;;;;;;;;;;;28.00;67.00;;;;;;6337643;22;20005;-82
2022/10/17 12:19:05;;;;;;;47.33;37.03;;;27.90;67.60;;;;;;6337147;22;19906;-82
2022/10/17 12:21:55;;;;;;;52.50;38.20;;;27.90;67.90;;;;;;6338285;22;20003;-82
2022/10/17 12:24:38;;;;;;;46.17;33.58;;;28.20;68.10;;;;;;6337994;22;20006;-83
2022/10/17 12:27:34;;;;;;;51.88;35.72;;;28.40;66.70;;;;;;6338486;22;20006;-83
2022/10/17 12:30:14;;;;;;;49.95;35.38;;;28.40;65.20;;;;;;6310635;22;20029;-83
2022/10/17 12:33:05;;;;;;;48.80;34.75;;;27.70;66.20;;;;;;6338380;22;20398;-84
2022/10/17 12:35:32;;;;;;;47.80;33.60;;;27.30;66.40;;;;;;6310691;22;20038;-83
2022/10/17 12:38:03;;;;;;;45.58;34.08;;;27.40;66.50;;;;;;6338275;22;19999;-83
2022/10/17 12:40:34;;;;;;;54.85;40.15;;;27.70;67.00;;;;;;6310323;22;20013;-82
2022/10/17 12:43:15;;;;;;;46.95;35.72;;;27.50;67.70;;;;;;6338276;22;20030;-82
2022/10/17 12:46:03;;;;;;;55.30;40.13;;;27.60;68.70;;;;;;6310425;22;20025;-83
2022/10/17 12:48:41;;;;;;;62.80;43.00;;;27.60;67.90;;;;;;6336935;22;20168;-82